Time;durP1;ratioP1;P1;durP2;ratioP2;P2;SDS_P1;SDS_P2;PMS_P1;PMS_P2;Temp;Humidity;BMP_temperature;BMP_pressure;BME280_temperature;BME280_humidity;BME280_pressure;Samples;Min_cycle;Max_cycle;Signal;HPM_P1;HPM_P2
2022/05/11 00:00:15;;;;;;;5.90;5.30;;;16.40;99.90;;;;;;4877519;29;20237;-76
2022/05/11 00:02:40;;;;;;;6.17;5.07;;;16.30;99.90;;;;;;4877304;29;20180;-75
2022/05/11 00:05:08;;;;;;;5.33;4.83;;;16.40;99.90;;;;;;4846613;29;20302;-76
2022/05/11 00:07:34;;;;;;;7.03;5.17;;;16.40;99.90;;;;;;4862167;29;20248;-75
2022/05/11 00:09:59;;;;;;;5.50;5.00;;;16.40;99.90;;;;;;4846656;29;20187;-75
2022/05/11 00:12:25;;;;;;;5.20;4.80;;;16.30;99.90;;;;;;4861458;29;20191;-75
2022/05/11 00:14:51;;;;;;;5.60;5.10;;;16.20;99.90;;;;;;4846245;29;20203;-76
2022/05/11 00:17:16;;;;;;;6.87;5.23;;;16.20;99.90;;;;;;4861931;29;20197;-76
2022/05/11 00:19:42;;;;;;;5.57;5.07;;;16.20;99.90;;;;;;4877070;29;20218;-76
2022/05/11 00:22:08;;;;;;;5.70;5.20;;;16.30;99.90;;;;;;4846528;29;20183;-76
2022/05/11 00:24:33;;;;;;;5.40;4.97;;;16.30;99.90;;;;;;4861707;29;20214;-75
2022/05/11 00:27:00;;;;;;;5.87;5.00;;;16.30;99.90;;;;;;4846361;29;20191;-76
2022/05/11 00:29:26;;;;;;;5.80;5.30;;;16.30;99.90;;;;;;4861631;29;20192;-75
2022/05/11 00:31:51;;;;;;;5.20;4.80;;;16.40;99.90;;;;;;4846535;29;20179;-76
2022/05/11 00:34:17;;;;;;;5.67;5.17;;;16.30;99.90;;;;;;4846323;29;20212;-76
2022/05/11 00:36:42;;;;;;;5.70;5.10;;;16.30;99.90;;;;;;4846581;29;20286;-76
2022/05/11 00:39:08;;;;;;;5.73;5.23;;;16.30;99.90;;;;;;4846425;29;20211;-76
2022/05/11 00:41:34;;;;;;;5.20;4.80;;;16.30;99.90;;;;;;4846360;29;20211;-76
2022/05/11 00:44:01;;;;;;;5.90;5.40;;;16.30;99.90;;;;;;4846159;29;20210;-76
2022/05/11 00:46:39;;;;;;;6.10;5.50;;;16.30;99.90;;;;;;4861926;29;20188;-76
2022/05/11 00:49:36;;;;;;;5.60;5.10;;;16.20;99.90;;;;;;4877141;29;20193;-76
2022/05/11 00:52:07;;;;;;;5.80;5.37;;;16.20;99.90;;;;;;4859990;29;20218;-75
2022/05/11 00:54:37;;;;;;;6.30;5.13;;;16.10;99.90;;;;;;4877004;29;20203;-76
2022/05/11 00:57:06;;;;;;;5.50;5.00;;;16.10;99.90;;;;;;4861859;29;20188;-76
2022/05/11 00:59:36;;;;;;;5.40;4.90;;;16.10;99.90;;;;;;4846434;29;20208;-76
2022/05/11 01:02:06;;;;;;;5.60;5.10;;;16.20;99.90;;;;;;4876712;29;20222;-75
2022/05/11 01:04:38;;;;;;;5.90;5.30;;;16.20;99.90;;;;;;4891946;23;20222;-77
2022/05/11 01:07:04;;;;;;;5.97;5.47;;;16.20;99.90;;;;;;4898784;29;20269;-77
2022/05/11 01:09:30;;;;;;;5.60;5.10;;;16.20;99.90;;;;;;4898727;29;20233;-77
2022/05/11 01:11:59;;;;;;;5.53;5.03;;;16.20;99.90;;;;;;4882864;29;20198;-77
2022/05/11 01:14:30;;;;;;;5.80;5.30;;;16.30;99.90;;;;;;4883151;29;20202;-77
2022/05/11 01:16:58;;;;;;;5.80;5.30;;;16.30;99.90;;;;;;4915547;29;20178;-77
2022/05/11 01:19:30;;;;;;;6.10;5.60;;;16.20;99.90;;;;;;4898522;29;20211;-77
2022/05/11 01:22:03;;;;;;;5.57;5.00;;;16.20;99.90;;;;;;4898305;29;20178;-77
2022/05/11 01:24:44;;;;;;;5.80;5.30;;;16.20;99.90;;;;;;4884535;29;20209;-77
2022/05/11 01:27:28;;;;;;;6.37;5.73;;;16.20;99.90;;;;;;4902952;29;20254;-77
2022/05/11 01:29:57;;;;;;;6.30;5.70;;;16.10;99.90;;;;;;4919023;29;20175;-77
2022/05/11 01:32:24;;;;;;;6.43;5.83;;;16.20;99.90;;;;;;4886570;29;20178;-77
2022/05/11 01:35:04;;;;;;;6.13;5.43;;;16.10;99.90;;;;;;4918795;29;20564;-77
2022/05/11 01:37:36;;;;;;;6.07;5.57;;;16.10;99.90;;;;;;4902287;29;20187;-77
2022/05/11 01:40:02;;;;;;;6.43;5.83;;;16.10;99.90;;;;;;4886981;29;20293;-77
2022/05/11 01:42:28;;;;;;;6.43;5.83;;;16.00;99.90;;;;;;4901636;29;20209;-77
2022/05/11 01:44:53;;;;;;;7.20;5.97;;;16.00;99.90;;;;;;4870685;29;20222;-77
2022/05/11 01:47:19;;;;;;;6.83;6.23;;;16.00;99.90;;;;;;4886293;29;20182;-77
2022/05/11 01:49:44;;;;;;;7.40;6.50;;;15.90;99.90;;;;;;4886231;29;20201;-77
2022/05/11 01:52:10;;;;;;;6.80;6.20;;;15.90;99.90;;;;;;4870342;29;20187;-77
2022/05/11 01:54:36;;;;;;;6.97;6.20;;;15.90;99.90;;;;;;4885959;29;20202;-77
2022/05/11 01:57:01;;;;;;;6.57;5.97;;;15.80;99.90;;;;;;4870632;29;20206;-77
2022/05/11 01:59:27;;;;;;;6.10;5.60;;;15.80;99.90;;;;;;4870448;29;20238;-77
2022/05/11 02:01:52;;;;;;;6.00;5.50;;;15.80;99.90;;;;;;4885621;29;20550;-77
2022/05/11 02:09:46;;;;;;;7.60;5.83;;;15.90;99.90;;;;;;4904264;29;20245;-77
2022/05/11 02:12:12;;;;;;;6.33;5.73;;;16.00;99.90;;;;;;4869912;29;20187;-77
2022/05/11 02:14:39;;;;;;;5.87;5.33;;;16.10;99.90;;;;;;4885630;29;20202;-77
2022/05/11 02:17:05;;;;;;;5.87;5.30;;;16.10;99.90;;;;;;4901323;29;20230;-77
2022/05/11 02:19:31;;;;;;;6.67;6.03;;;16.10;99.90;;;;;;4885751;29;20206;-77
2022/05/11 02:21:56;;;;;;;6.57;5.97;;;16.10;99.90;;;;;;4900809;29;20174;-77
2022/05/11 02:24:23;;;;;;;6.53;5.73;;;16.10;99.90;;;;;;4885423;29;20274;-77
2022/05/11 02:26:48;;;;;;;5.80;5.30;;;16.10;99.90;;;;;;4885351;29;20181;-77
2022/05/11 02:29:14;;;;;;;6.13;5.63;;;16.10;99.90;;;;;;4885188;29;20183;-77
2022/05/11 02:31:39;;;;;;;5.37;4.93;;;16.10;99.90;;;;;;4885637;29;20189;-77
2022/05/11 02:34:06;;;;;;;6.40;5.80;;;16.10;99.90;;;;;;4900796;29;20604;-77
2022/05/11 02:36:33;;;;;;;7.00;6.27;;;16.10;99.90;;;;;;4900244;29;20190;-77
2022/05/11 02:38:59;;;;;;;6.47;5.67;;;16.10;99.90;;;;;;4900731;29;20208;-77
2022/05/11 02:41:25;;;;;;;6.37;5.77;;;16.00;99.90;;;;;;4869967;29;20341;-77
2022/05/11 02:43:51;;;;;;;6.93;6.17;;;16.00;99.90;;;;;;4885254;29;20662;-77
2022/05/11 02:46:16;;;;;;;6.20;5.60;;;16.00;99.90;;;;;;4869584;29;20669;-77
2022/05/11 02:48:42;;;;;;;6.57;5.97;;;16.00;99.90;;;;;;4869712;29;20190;-77
2022/05/11 02:51:08;;;;;;;6.30;5.60;;;16.00;99.90;;;;;;4885008;29;20191;-77
2022/05/11 02:53:33;;;;;;;6.27;5.67;;;15.90;99.90;;;;;;4884892;29;20562;-77
2022/05/11 02:56:00;;;;;;;6.53;5.93;;;15.90;99.90;;;;;;4900304;29;20258;-77
2022/05/11 02:58:28;;;;;;;6.17;5.57;;;15.80;99.90;;;;;;4885038;29;20206;-77
2022/05/11 03:00:57;;;;;;;6.33;5.67;;;15.80;99.90;;;;;;4885251;29;20238;-77
2022/05/11 03:03:23;;;;;;;6.13;5.63;;;15.80;99.90;;;;;;4900229;29;20175;-77
2022/05/11 03:05:52;;;;;;;6.30;5.70;;;15.80;99.90;;;;;;4869156;29;20321;-77
2022/05/11 03:08:18;;;;;;;6.60;6.00;;;15.80;99.90;;;;;;4885143;29;20230;-77
2022/05/11 03:10:44;;;;;;;6.73;6.13;;;15.80;99.90;;;;;;4900311;29;20248;-77
2022/05/11 03:13:10;;;;;;;6.40;5.80;;;15.80;99.90;;;;;;4900239;29;20179;-77
2022/05/11 03:15:36;;;;;;;6.07;5.47;;;15.70;99.90;;;;;;4900082;29;20248;-77
2022/05/11 03:18:03;;;;;;;8.53;6.00;;;15.70;99.90;;;;;;4884634;29;20556;-77
2022/05/11 03:20:29;;;;;;;6.33;5.80;;;15.70;99.90;;;;;;4900294;29;20186;-77
2022/05/11 03:22:55;;;;;;;6.80;6.10;;;15.70;99.90;;;;;;4868780;29;20186;-77
2022/05/11 03:25:21;;;;;;;6.17;5.57;;;15.70;99.90;;;;;;4899869;29;20576;-77
2022/05/11 03:27:47;;;;;;;6.30;5.70;;;15.60;99.90;;;;;;4899904;29;20178;-77
2022/05/11 03:30:14;;;;;;;7.07;5.80;;;15.60;99.90;;;;;;4884406;29;20248;-77
2022/05/11 03:35:23;;;;;;;6.27;5.67;;;15.60;99.90;;;;;;4916897;29;20258;-77
2022/05/11 03:37:49;;;;;;;5.97;5.47;;;15.70;99.90;;;;;;4868701;29;20178;-77
2022/05/11 03:40:14;;;;;;;6.03;5.43;;;15.70;99.90;;;;;;4868642;29;20202;-77
2022/05/11 03:42:41;;;;;;;5.97;5.27;;;15.70;99.90;;;;;;4899573;29;20202;-77
2022/05/11 03:45:12;;;;;;;5.93;5.20;;;15.70;99.90;;;;;;4916508;29;20266;-77
2022/05/11 03:47:37;;;;;;;6.17;5.13;;;15.80;99.90;;;;;;4898930;29;20177;-77
2022/05/11 03:50:04;;;;;;;5.50;5.10;;;15.80;99.90;;;;;;4868548;29;20661;-77
2022/05/11 03:52:29;;;;;;;6.10;5.50;;;15.90;99.90;;;;;;4899272;29;20277;-77
2022/05/11 03:54:55;;;;;;;5.97;5.37;;;15.90;99.90;;;;;;4868350;29;20312;-77
2022/05/11 03:57:21;;;;;;;5.63;5.13;;;15.90;99.90;;;;;;4899427;29;20178;-77
2022/05/11 03:59:47;;;;;;;6.07;5.47;;;15.90;99.90;;;;;;4884020;29;20210;-77
2022/05/11 04:02:12;;;;;;;6.70;6.03;;;15.90;99.90;;;;;;4899143;29;20189;-77
2022/05/11 04:04:38;;;;;;;6.73;5.40;;;15.90;99.90;;;;;;4884111;29;20296;-77
2022/05/11 04:07:04;;;;;;;5.83;5.30;;;15.90;99.90;;;;;;4868523;29;20649;-77
2022/05/11 04:09:29;;;;;;;6.20;5.60;;;15.90;99.90;;;;;;4883825;29;20222;-77
2022/05/11 04:11:55;;;;;;;6.33;5.73;;;16.00;99.90;;;;;;4868132;29;20214;-77
2022/05/11 04:14:21;;;;;;;6.70;5.87;;;16.00;99.90;;;;;;4868037;29;20183;-77
2022/05/11 04:16:48;;;;;;;6.40;5.80;;;16.00;99.90;;;;;;4883612;29;20616;-77
2022/05/11 04:19:14;;;;;;;6.13;5.57;;;16.00;99.90;;;;;;4899382;29;20209;-77
2022/05/11 04:21:40;;;;;;;6.10;5.60;;;16.00;99.90;;;;;;4868343;29;20564;-77
2022/05/11 04:24:05;;;;;;;6.10;5.50;;;16.00;99.90;;;;;;4868358;29;20218;-77
2022/05/11 04:26:32;;;;;;;6.60;5.60;;;16.10;99.90;;;;;;4868134;29;20178;-77
2022/05/11 04:28:57;;;;;;;6.17;5.57;;;16.10;99.90;;;;;;4868287;29;20182;-77
2022/05/11 04:31:23;;;;;;;6.90;5.70;;;16.10;99.90;;;;;;4868097;29;20336;-77
2022/05/11 04:33:50;;;;;;;6.77;6.07;;;16.20;99.90;;;;;;4883224;29;20207;-77
2022/05/11 04:36:16;;;;;;;6.73;5.93;;;16.20;99.90;;;;;;4883642;29;20210;-77
2022/05/11 04:38:42;;;;;;;6.80;5.50;;;16.20;99.90;;;;;;4883521;29;20210;-77
2022/05/11 04:41:08;;;;;;;5.97;5.33;;;16.20;99.90;;;;;;4867944;29;20229;-77
2022/05/11 04:43:34;;;;;;;6.30;5.80;;;16.20;99.90;;;;;;4898673;29;20186;-77
2022/05/11 04:45:59;;;;;;;6.37;5.37;;;16.20;99.90;;;;;;4898953;29;20218;-77
2022/05/11 04:48:26;;;;;;;6.20;5.60;;;16.20;99.90;;;;;;4883234;29;20178;-77
2022/05/11 04:50:52;;;;;;;6.20;5.40;;;16.20;99.90;;;;;;4883471;29;20182;-77
2022/05/11 04:53:18;;;;;;;6.63;5.97;;;16.30;99.90;;;;;;4883434;29;20547;-77
2022/05/11 04:55:45;;;;;;;6.37;5.77;;;16.30;99.90;;;;;;4898883;29;20265;-77
2022/05/11 04:58:11;;;;;;;6.67;5.37;;;16.40;99.90;;;;;;4898802;29;20177;-75
2022/05/11 05:00:37;;;;;;;5.90;5.30;;;16.40;99.90;;;;;;4901799;29;20178;-75
2022/05/11 05:03:08;;;;;;;6.20;5.60;;;16.50;99.90;;;;;;4902312;29;20171;-75
2022/05/11 05:05:34;;;;;;;6.73;5.60;;;16.50;99.90;;;;;;4902511;29;20217;-75
2022/05/11 05:07:59;;;;;;;6.00;5.20;;;16.60;99.90;;;;;;4886975;29;20182;-74
2022/05/11 05:10:25;;;;;;;5.77;5.27;;;16.70;99.90;;;;;;4886886;29;20281;-75
2022/05/11 05:12:50;;;;;;;5.40;4.90;;;16.80;99.90;;;;;;4886719;29;20194;-77
2022/05/11 05:15:17;;;;;;;5.37;4.93;;;16.90;99.90;;;;;;4886410;29;20210;-76
2022/05/11 05:17:43;;;;;;;7.77;5.53;;;17.00;99.90;;;;;;4902290;29;20214;-75
2022/05/11 05:20:12;;;;;;;5.50;5.00;;;17.00;99.90;;;;;;4919004;29;20202;-75
2022/05/11 05:22:38;;;;;;;5.73;5.17;;;17.10;99.90;;;;;;4901976;29;20226;-75
2022/05/11 05:25:04;;;;;;;5.80;5.30;;;17.20;99.90;;;;;;4871112;29;20202;-75
2022/05/11 05:27:30;;;;;;;6.03;5.43;;;17.20;99.90;;;;;;4886528;29;20182;-75
2022/05/11 05:32:43;;;;;;;6.47;5.20;;;17.30;99.90;;;;;;4891448;29;20215;-77
2022/05/11 05:35:12;;;;;;;6.30;5.70;;;17.40;99.90;;;;;;4901886;29;20205;-76
2022/05/11 05:37:38;;;;;;;5.90;5.30;;;17.40;99.90;;;;;;4886345;29;20183;-76
2022/05/11 05:40:05;;;;;;;5.90;5.37;;;17.40;99.90;;;;;;4901861;29;20217;-76
2022/05/11 05:42:32;;;;;;;7.33;5.37;;;17.40;99.90;;;;;;4885989;29;20178;-76
2022/05/11 05:44:57;;;;;;;5.80;5.30;;;17.50;99.90;;;;;;4902026;29;20205;-77
2022/05/11 05:47:23;;;;;;;5.57;5.07;;;17.60;99.90;;;;;;4870677;29;20178;-76
2022/05/11 05:49:49;;;;;;;7.50;5.17;;;17.60;99.90;;;;;;4870694;29;20624;-75
2022/05/11 05:52:20;;;;;;;5.70;5.20;;;17.60;99.90;;;;;;4901507;29;20190;-75
2022/05/11 05:54:46;;;;;;;6.93;5.50;;;17.70;99.90;;;;;;4918508;29;20328;-76
2022/05/11 05:57:13;;;;;;;5.80;5.30;;;17.80;99.90;;;;;;4901428;29;20706;-76
2022/05/11 05:59:38;;;;;;;6.13;5.43;;;17.80;99.90;;;;;;4901609;29;20293;-74
2022/05/11 06:02:08;;;;;;;6.20;5.60;;;17.80;99.90;;;;;;4885685;29;20602;-75
2022/05/11 06:04:34;;;;;;;6.00;5.40;;;17.90;99.90;;;;;;4871429;29;20214;-74
2022/05/11 06:06:59;;;;;;;5.60;5.10;;;17.90;99.90;;;;;;4885933;29;20189;-74
2022/05/11 06:09:25;;;;;;;7.23;5.40;;;17.90;99.90;;;;;;4886026;29;20187;-74
2022/05/11 06:11:50;;;;;;;6.00;5.50;;;18.00;99.90;;;;;;4869049;29;20198;-74
2022/05/11 06:14:16;;;;;;;5.77;5.20;;;18.00;99.90;;;;;;4885625;29;20186;-74
2022/05/11 06:16:42;;;;;;;5.93;5.33;;;18.10;99.90;;;;;;4870313;29;20210;-75
2022/05/11 06:19:08;;;;;;;5.20;4.77;;;18.20;99.90;;;;;;4885672;29;20214;-76
2022/05/11 06:21:34;;;;;;;5.40;5.00;;;18.10;99.90;;;;;;4885558;29;20239;-76
2022/05/11 06:24:00;;;;;;;6.10;4.80;;;18.30;99.90;;;;;;4885449;29;20183;-76
2022/05/11 06:26:25;;;;;;;5.57;5.07;;;18.30;99.90;;;;;;4900871;29;20209;-75
2022/05/11 06:28:51;;;;;;;6.10;5.20;;;18.40;99.90;;;;;;4901202;29;20182;-75
2022/05/11 06:31:17;;;;;;;5.43;4.93;;;18.40;99.90;;;;;;4901189;29;20333;-77
2022/05/11 06:33:49;;;;;;;5.27;4.77;;;18.50;99.90;;;;;;4869764;29;20558;-76
2022/05/11 06:36:15;;;;;;;5.40;4.90;;;18.50;99.90;;;;;;4886024;29;20214;-76
2022/05/11 06:38:41;;;;;;;5.67;5.17;;;18.50;99.90;;;;;;4885168;29;20214;-74
2022/05/11 06:41:19;;;;;;;5.33;4.83;;;18.50;99.90;;;;;;4885179;29;20190;-74
2022/05/11 06:43:45;;;;;;;9.60;4.90;;;18.50;99.90;;;;;;4900572;29;20222;-75
2022/05/11 06:46:11;;;;;;;5.23;4.60;;;18.50;99.90;;;;;;4900518;29;20289;-76
2022/05/11 06:48:36;;;;;;;5.00;4.47;;;18.50;99.90;;;;;;4901110;29;20253;-77
2022/05/11 06:51:02;;;;;;;5.10;4.60;;;18.60;99.90;;;;;;4901379;29;20246;-77
2022/05/11 06:59:16;;;;;;;5.07;4.57;;;18.60;99.90;;;;;;4885432;29;20190;-76
2022/05/11 07:01:42;;;;;;;5.20;4.43;;;19.00;99.90;;;;;;4903505;29;20311;-78
2022/05/11 07:04:07;;;;;;;7.37;4.60;;;19.20;99.90;;;;;;4885086;29;20281;-77
2022/05/11 07:06:33;;;;;;;5.40;4.90;;;19.40;99.90;;;;;;4904245;23;20722;-78
2022/05/11 07:08:58;;;;;;;4.77;4.30;;;19.60;99.90;;;;;;4904054;29;20188;-78
2022/05/11 07:14:08;;;;;;;8.90;4.67;;;19.80;99.90;;;;;;4923344;29;20188;-78
2022/05/11 07:16:34;;;;;;;6.10;4.53;;;19.90;99.90;;;;;;4901579;29;20218;-78
2022/05/11 07:19:01;;;;;;;5.20;4.40;;;20.00;99.90;;;;;;4901549;29;20637;-77
2022/05/11 07:21:26;;;;;;;4.90;4.50;;;20.10;99.90;;;;;;4886402;29;20201;-78
2022/05/11 07:23:52;;;;;;;4.63;4.20;;;20.10;99.90;;;;;;4900915;29;20175;-78
2022/05/11 07:26:17;;;;;;;5.82;4.60;;;20.20;99.90;;;;;;4886096;29;20241;-77
2022/05/11 07:28:43;;;;;;;4.80;4.40;;;20.30;99.90;;;;;;4885465;29;20276;-77
2022/05/11 07:31:09;;;;;;;4.47;4.07;;;20.40;99.90;;;;;;4886170;29;20186;-78
2022/05/11 07:33:34;;;;;;;4.57;4.10;;;20.50;99.90;;;;;;4901021;29;20191;-78
2022/05/11 07:36:00;;;;;;;5.30;4.20;;;20.70;99.90;;;;;;4901585;29;20217;-77
2022/05/11 07:38:26;;;;;;;4.47;4.10;;;20.70;99.90;;;;;;4885592;29;20225;-77
2022/05/11 07:40:51;;;;;;;4.95;4.15;;;20.70;99.90;;;;;;4918934;29;20298;-79
2022/05/11 07:43:17;;;;;;;5.45;4.20;;;20.70;99.90;;;;;;4902068;29;20170;-78
2022/05/11 07:45:42;;;;;;;4.95;4.10;;;20.90;99.90;;;;;;4918458;29;20381;-77
2022/05/11 07:48:09;;;;;;;5.13;4.20;;;21.00;99.90;;;;;;4901188;29;20201;-77
2022/05/11 07:50:35;;;;;;;6.38;4.20;;;21.00;99.90;;;;;;4901201;29;20569;-78
2022/05/11 07:53:01;;;;;;;4.88;3.63;;;21.10;99.90;;;;;;4900993;29;20197;-76
2022/05/11 07:55:28;;;;;;;4.13;3.75;;;21.10;99.90;;;;;;4900919;29;20206;-77
2022/05/11 08:00:39;;;;;;;4.10;3.70;;;21.30;99.90;;;;;;4918433;29;20189;-78
2022/05/11 08:03:05;;;;;;;3.90;3.25;;;21.40;99.90;;;;;;4900957;29;20175;-78
2022/05/11 08:05:32;;;;;;;4.40;3.70;;;21.50;99.90;;;;;;4900881;29;20255;-78
2022/05/11 08:08:01;;;;;;;3.80;3.50;;;21.60;99.90;;;;;;4900999;29;20170;-77
2022/05/11 08:10:42;;;;;;;4.70;3.60;;;21.70;99.90;;;;;;4885188;29;20253;-76
2022/05/11 08:13:09;;;;;;;4.22;3.80;;;21.80;99.90;;;;;;4916526;29;20186;-78
2022/05/11 08:15:38;;;;;;;3.95;3.60;;;21.90;99.90;;;;;;4900675;29;20222;-78
2022/05/11 08:18:05;;;;;;;3.75;3.45;;;22.00;99.90;;;;;;4900812;29;20668;-77
2022/05/11 08:20:34;;;;;;;3.85;3.55;;;22.10;99.90;;;;;;4900461;29;20234;-78
2022/05/11 08:23:02;;;;;;;4.20;3.80;;;22.20;99.90;;;;;;4917037;29;20178;-78
2022/05/11 08:25:31;;;;;;;3.80;3.50;;;22.20;99.90;;;;;;4900696;29;20226;-78
2022/05/11 08:27:57;;;;;;;4.78;3.45;;;22.40;99.90;;;;;;4900977;29;20186;-77
2022/05/11 08:33:23;;;;;;;4.85;3.80;;;22.60;99.90;;;;;;4916841;29;20198;-79
2022/05/11 08:35:52;;;;;;;3.92;3.50;;;22.60;99.90;;;;;;4900500;29;20198;-78
2022/05/11 08:38:20;;;;;;;4.05;3.63;;;22.60;99.90;;;;;;4900561;29;20182;-77
2022/05/11 08:40:50;;;;;;;4.82;3.53;;;22.70;99.90;;;;;;4917357;29;20579;-77
2022/05/11 08:43:17;;;;;;;6.57;4.07;;;22.90;99.90;;;;;;4900119;29;20175;-77
2022/05/11 08:46:12;;;;;;;4.05;3.75;;;22.90;99.90;;;;;;4884837;29;20209;-78
2022/05/11 08:48:56;;;;;;;4.75;3.80;;;23.00;99.90;;;;;;4900549;29;20221;-78
2022/05/11 08:51:31;;;;;;;4.15;3.33;;;23.20;99.90;;;;;;4900056;29;20248;-77
2022/05/11 08:54:14;;;;;;;3.80;3.50;;;23.20;99.90;;;;;;4900531;29;20178;-78
2022/05/11 08:56:42;;;;;;;3.80;3.33;;;23.30;99.90;;;;;;4898813;29;20202;-78
2022/05/11 08:59:16;;;;;;;3.97;3.53;;;23.50;99.90;;;;;;4900404;29;20210;-76
2022/05/11 09:01:49;;;;;;;4.30;3.45;;;23.70;99.90;;;;;;4898784;29;20206;-76
2022/05/11 09:04:19;;;;;;;4.00;3.60;;;23.70;99.90;;;;;;4898692;29;20179;-76
2022/05/11 09:06:45;;;;;;;3.97;3.33;;;23.70;99.90;;;;;;4898439;29;20213;-76
2022/05/11 09:09:12;;;;;;;4.97;3.40;;;23.70;99.90;;;;;;4898639;29;20182;-77
2022/05/11 09:11:42;;;;;;;4.03;3.72;;;23.80;99.90;;;;;;4898790;29;20201;-76
2022/05/11 09:14:08;;;;;;;3.78;3.47;;;24.00;99.90;;;;;;4914375;29;20637;-75
2022/05/11 09:16:42;;;;;;;4.65;3.65;;;24.10;99.90;;;;;;4883152;29;20213;-76
2022/05/11 09:19:19;;;;;;;3.72;3.42;;;24.30;99.90;;;;;;4898507;29;20603;-77
2022/05/11 09:21:53;;;;;;;5.45;3.53;;;24.50;99.90;;;;;;4898507;29;20242;-76
2022/05/11 09:24:18;;;;;;;3.58;3.03;;;24.70;99.90;;;;;;4898723;29;20186;-77
2022/05/11 09:26:46;;;;;;;3.60;3.20;;;24.80;99.90;;;;;;4899822;29;20194;-77
2022/05/11 09:29:22;;;;;;;4.40;3.22;;;24.80;99.90;;;;;;4899446;29;20650;-77
2022/05/11 09:31:50;;;;;;;3.40;3.10;;;24.90;99.90;;;;;;4898820;29;20205;-76
2022/05/11 09:34:28;;;;;;;4.45;3.17;;;24.80;99.90;;;;;;4898383;29;20186;-76
2022/05/11 09:37:02;;;;;;;4.95;3.30;;;25.00;99.90;;;;;;4898522;29;20261;-76
2022/05/11 09:39:30;;;;;;;4.75;3.35;;;25.00;99.90;;;;;;4915398;29;20206;-76
2022/05/11 09:42:10;;;;;;;3.75;3.10;;;25.10;99.90;;;;;;4898217;29;20182;-76
2022/05/11 09:44:48;;;;;;;3.20;3.00;;;25.20;99.90;;;;;;4898583;29;20175;-76
2022/05/11 09:47:28;;;;;;;3.40;3.10;;;25.30;99.90;;;;;;4901068;29;20179;-76
2022/05/11 09:50:16;;;;;;;3.33;2.90;;;25.30;99.90;;;;;;4902427;29;20642;-76
2022/05/11 09:52:41;;;;;;;3.25;3.05;;;25.30;99.90;;;;;;4901800;29;20213;-75
2022/05/11 09:55:23;;;;;;;3.60;2.92;;;25.30;99.90;;;;;;4917746;29;20214;-75
2022/05/11 09:57:59;;;;;;;3.08;2.70;;;25.50;99.90;;;;;;4901897;29;20179;-75
2022/05/11 10:00:38;;;;;;;3.55;3.25;;;25.50;99.90;;;;;;4901800;29;20226;-76
2022/05/11 10:03:10;;;;;;;5.72;3.15;;;25.60;99.90;;;;;;4917539;29;20162;-76
2022/05/11 10:05:42;;;;;;;4.45;3.00;;;25.80;99.90;;;;;;4901773;29;20286;-75
2022/05/11 10:08:23;;;;;;;3.55;2.67;;;25.90;99.90;;;;;;4901952;29;20178;-74
2022/05/11 10:11:10;;;;;;;5.55;2.90;;;25.70;98.90;;;;;;4901545;29;20185;-75
2022/05/11 10:13:44;;;;;;;5.45;2.70;;;25.70;99.30;;;;;;4901805;29;20174;-77
2022/05/11 10:22:35;;;;;;;4.07;2.70;;;26.30;99.10;;;;;;4918375;29;20261;-76
2022/05/11 10:25:19;;;;;;;4.53;2.70;;;26.30;99.40;;;;;;4901336;29;20246;-76
2022/05/11 10:27:47;;;;;;;5.30;2.90;;;26.50;99.30;;;;;;4901476;29;20586;-75
2022/05/11 10:30:21;;;;;;;2.92;2.72;;;26.20;98.60;;;;;;4901396;29;20175;-75
2022/05/11 10:32:52;;;;;;;4.13;3.00;;;26.00;97.60;;;;;;4901216;29;20182;-76
2022/05/11 10:35:26;;;;;;;3.55;2.97;;;25.90;97.70;;;;;;4901814;29;20644;-76
2022/05/11 10:38:08;;;;;;;5.07;3.03;;;25.80;98.80;;;;;;4901535;29;20221;-76
2022/05/11 10:40:44;;;;;;;3.47;2.97;;;26.00;98.50;;;;;;4901241;29;20229;-77
2022/05/11 10:43:36;;;;;;;4.68;2.90;;;26.20;98.20;;;;;;4901013;29;20261;-75
2022/05/11 10:46:21;;;;;;;3.85;2.92;;;26.40;97.10;;;;;;4900985;29;20346;-76
2022/05/11 10:48:47;;;;;;;3.20;2.90;;;26.40;96.90;;;;;;4901340;29;20178;-77
2022/05/11 10:51:32;;;;;;;3.97;2.88;;;26.50;97.70;;;;;;4918065;29;20181;-76
2022/05/11 10:54:05;;;;;;;3.08;2.80;;;26.50;97.90;;;;;;4917747;29;20236;-76
2022/05/11 10:56:41;;;;;;;3.67;3.00;;;26.00;97.40;;;;;;4900932;29;20218;-77
2022/05/11 10:59:27;;;;;;;3.00;2.75;;;26.10;97.60;;;;;;4900884;29;20302;-74
2022/05/11 11:02:02;;;;;;;4.18;2.67;;;26.10;97.40;;;;;;4900846;29;20162;-75
2022/05/11 11:04:58;;;;;;;3.28;2.70;;;26.50;97.90;;;;;;4917626;29;20249;-75
2022/05/11 11:07:44;;;;;;;4.38;2.63;;;26.60;95.20;;;;;;4900779;29;20230;-75
2022/05/11 11:10:24;;;;;;;4.15;2.83;;;26.50;93.40;;;;;;4900939;29;20170;-75
2022/05/11 11:13:29;;;;;;;3.67;2.50;;;26.50;93.90;;;;;;4917764;29;20167;-75
2022/05/11 11:15:57;;;;;;;3.83;2.80;;;26.70;94.40;;;;;;4888376;29;20213;-75
2022/05/11 11:18:33;;;;;;;4.88;2.50;;;26.60;93.20;;;;;;4917397;29;20181;-75
2022/05/11 11:21:02;;;;;;;3.00;2.72;;;;;;;;;;4900469;29;20245;-76
2022/05/11 11:23:29;;;;;;;3.92;3.00;;;;;;;;;;4900685;29;20182;-76
2022/05/11 11:25:57;;;;;;;3.35;2.90;;;;;;;;;;4900545;29;20204;-76
2022/05/11 11:28:23;;;;;;;3.50;2.70;;;;;;;;;;4900655;29;20179;-77
2022/05/11 11:30:59;;;;;;;5.25;3.25;;;;;;;;;;4900485;29;20183;-76
2022/05/11 11:33:33;;;;;;;3.28;2.65;;;;;;;;;;4900267;29;20224;-77
2022/05/11 11:35:59;;;;;;;3.70;2.63;;;;;;;;;;4900244;29;20248;-77
2022/05/11 11:38:45;;;;;;;4.25;2.90;;;;;;;;;;4917358;29;20178;-76
2022/05/11 11:41:16;;;;;;;3.60;2.75;;;;;;;;;;4916813;29;20190;-75
2022/05/11 11:43:52;;;;;;;2.75;2.55;;;;;;;;;;4916883;29;20166;-74
2022/05/11 11:46:27;;;;;;;3.00;2.70;;;;;;;;;;4900219;29;20257;-75
2022/05/11 11:49:02;;;;;;;4.30;2.80;;;;;;;;;;4900326;29;20177;-77
2022/05/11 11:51:33;;;;;;;2.75;2.55;;;;;;;;;;4900319;29;20174;-76
2022/05/11 11:53:59;;;;;;;3.05;2.75;;;;;;;;;;4916643;29;20178;-77
2022/05/11 11:56:25;;;;;;;6.75;2.80;;;;;;;;;;4900099;29;20252;-77
2022/05/11 11:59:03;;;;;;;5.55;2.88;;;;;;;;;;4899779;29;20237;-77
2022/05/11 12:01:31;;;;;;;3.78;2.80;;;;;;;;;;4899987;29;20269;-76
2022/05/11 12:03:59;;;;;;;4.78;2.78;;;;;;;;;;4899902;29;20205;-77
2022/05/11 12:15:02;;;;;;;5.75;2.70;;;;;;;;;;4915888;29;20268;-77
2022/05/11 12:17:36;;;;;;;4.57;3.20;;;;;;;;;;4899515;29;20170;-77
2022/05/11 12:20:04;;;;;;;5.05;3.20;;;;;;;;;;4899694;29;20213;-77
2022/05/11 12:22:31;;;;;;;5.07;3.20;;;;;;;;;;4899597;29;20183;-76
2022/05/11 12:24:57;;;;;;;5.22;3.30;;;;;;;;;;4916403;29;20186;-76
2022/05/11 12:27:25;;;;;;;5.10;3.30;;;;;;;;;;4899426;29;20193;-79
2022/05/11 12:29:58;;;;;;;3.45;3.15;;;;;;;;;;4899400;29;20182;-77
2022/05/11 12:32:29;;;;;;;4.97;3.28;;;;;;;;;;4899538;29;20204;-75
2022/05/11 12:34:55;;;;;;;5.63;3.40;;;;;;;;;;4899160;29;20285;-75
2022/05/11 12:37:29;;;;;;;6.50;3.10;;;;;;;;;;4899253;29;20226;-75
2022/05/11 12:40:15;;;;;;;4.00;3.13;;;;;;;;;;4899380;29;20214;-76
2022/05/11 12:42:41;;;;;;;3.70;3.40;;;;;;;;;;4916251;29;20218;-76
2022/05/11 12:45:10;;;;;;;4.78;3.47;;;;;;;;;;4899468;29;20584;-78
2022/05/11 12:47:37;;;;;;;3.58;3.28;;;;;;;;;;4899889;29;20182;-77
2022/05/11 12:50:03;;;;;;;3.97;3.28;;;;;;;;;;4899452;29;20174;-77
2022/05/11 12:52:29;;;;;;;3.88;3.47;;;;;;;;;;4899327;29;20183;-77
2022/05/11 12:55:03;;;;;;;7.40;3.42;;;;;;;;;;4915259;29;20197;-76
2022/05/11 12:57:43;;;;;;;3.15;2.92;;;;;;;;;;4899457;29;20183;-76
2022/05/11 13:00:12;;;;;;;4.10;3.38;;;;;;;;;;4899208;29;20345;-83
2022/05/11 13:02:41;;;;;;;3.55;3.25;;;;;;;;;;4898906;29;20178;-76
2022/05/11 13:05:09;;;;;;;4.05;3.35;;;;;;;;;;4906464;23;20229;-75
2022/05/11 13:07:38;;;;;;;4.20;3.13;;;;;;;;;;4915874;29;20186;-76
2022/05/11 13:10:06;;;;;;;4.68;3.10;;;;;;;;;;4883010;29;20178;-75
2022/05/11 13:12:32;;;;;;;3.55;3.13;;;;;;;;;;4882220;29;20182;-75
2022/05/11 13:15:00;;;;;;;3.10;2.85;;;;;;;;;;4898938;29;20205;-76
2022/05/11 13:17:35;;;;;;;3.80;3.40;;;;;;;;;;4883574;29;20661;-76
2022/05/11 13:20:07;;;;;;;3.47;2.92;;;;;;;;;;4916085;29;20182;-76
2022/05/11 13:22:33;;;;;;;3.67;3.03;;;;;;;;;;4902009;29;20251;-76
2022/05/11 13:25:01;;;;;;;3.47;3.17;;;;;;;;;;4902447;29;20273;-76
2022/05/11 13:27:46;;;;;;;3.55;3.25;;;;;;;;;;4902041;29;20603;-76
2022/05/11 13:30:12;;;;;;;3.17;2.95;;;;;;;;;;4901956;29;20210;-75
2022/05/11 13:32:39;;;;;;;3.65;3.28;;;;;;;;;;4901961;29;20174;-75
2022/05/11 13:35:34;;;;;;;4.13;3.33;;;;;;;;;;4918931;29;20206;-75
2022/05/11 13:38:04;;;;;;;5.88;3.67;;;;;;;;;;4882597;29;20271;-75
2022/05/11 13:40:34;;;;;;;3.67;3.33;;;;;;;;;;4919012;29;20257;-75
2022/05/11 13:43:01;;;;;;;4.63;3.13;;;;;;;;;;4902001;29;20208;-75
2022/05/11 13:45:27;;;;;;;4.13;3.38;;;;;;;;;;4901867;29;20194;-75
2022/05/11 13:48:12;;;;;;;5.32;3.55;;;;;;;;;;4901973;29;20179;-75
2022/05/11 13:50:43;;;;;;;3.42;3.13;;;;;;;;;;4901910;29;20206;-75
2022/05/11 13:53:28;;;;;;;3.72;3.42;;;;;;;;;;4901485;29;20182;-75
2022/05/11 13:55:57;;;;;;;5.25;3.45;;;;;;;;;;4918756;29;20280;-75